Time;durP1;ratioP1;P1;durP2;ratioP2;P2;SDS_P1;SDS_P2;PMS_P1;PMS_P2;Temp;Humidity;BMP_temperature;BMP_pressure;BME280_temperature;BME280_humidity;BME280_pressure;Samples;Min_cycle;Max_cycle;Signal;HPM_P1;HPM_P2
2024/04/17 00:00:03;;;;;;;;;;;5.90;99.90;;;;;;5358336;26;19935;-92
2024/04/17 00:02:28;;;;;;;;;;;5.60;99.90;;;;;;5358164;26;19940;-93
2024/04/17 00:04:54;;;;;;;;;;;5.90;99.90;;;;;;5358205;26;20364;-93
2024/04/17 00:07:19;;;;;;;;;;;5.50;99.90;;;;;;5358339;26;19936;-93
2024/04/17 00:09:45;;;;;;;;;;;6.50;99.90;;;;;;5386326;26;19941;-94
2024/04/17 00:12:10;;;;;;;;;;;5.70;99.90;;;;;;5357816;26;19936;-93
2024/04/17 00:14:36;;;;;;;;;;;5.70;99.90;;;;;;5386323;26;19929;-93
2024/04/17 00:17:02;;;;;;;;;;;5.60;99.90;;;;;;5358149;26;19929;-93
2024/04/17 00:19:27;;;;;;;;;;;5.90;99.90;;;;;;5357943;26;19935;-93
2024/04/17 00:21:53;;;;;;;;;;;6.90;99.90;;;;;;5361149;26;20366;-93
2024/04/17 00:24:18;;;;;;;;;;;5.90;99.90;;;;;;5361240;26;19941;-93
2024/04/17 00:26:44;;;;;;;;;;;5.70;99.90;;;;;;5361863;26;20257;-93
2024/04/17 00:29:10;;;;;;;;;;;5.70;99.90;;;;;;5361578;26;19929;-93
2024/04/17 00:31:36;;;;;;;;;;;6.80;99.90;;;;;;5360646;26;19953;-93
2024/04/17 00:34:02;;;;;;;;;;;5.50;99.90;;;;;;5390990;26;19936;-94
2024/04/17 00:36:28;;;;;;;;;;;6.60;99.90;;;;;;5390342;26;19933;-93
2024/04/17 00:38:56;;;;;;;;;;;6.60;99.90;;;;;;5388993;26;19929;-93
2024/04/17 00:41:21;;;;;;;;;;;6.10;99.90;;;;;;5360852;26;19929;-93
2024/04/17 00:43:47;;;;;;;;;;;5.80;99.90;;;;;;5360374;26;19936;-93
2024/04/17 00:46:13;;;;;;;;;;;7.10;99.90;;;;;;5362765;26;19933;-93
2024/04/17 00:48:38;;;;;;;;;;;6.90;99.90;;;;;;5362065;26;19929;-93
2024/04/17 00:51:04;;;;;;;;;;;5.60;99.90;;;;;;5422820;26;19929;-93
2024/04/17 00:53:31;;;;;;;;;;;6.60;99.90;;;;;;5361853;26;19960;-93
2024/04/17 00:55:57;;;;;;;;;;;5.40;99.90;;;;;;5422229;26;20348;-93
2024/04/17 00:58:23;;;;;;;;;;;5.40;99.90;;;;;;5361349;26;19929;-93
2024/04/17 01:00:48;;;;;;;;;;;6.30;99.90;;;;;;5361881;26;19929;-93
2024/04/17 01:03:14;;;;;;;;;;;5.90;99.90;;;;;;5360700;26;20351;-94
2024/04/17 01:05:40;;;;;;;;;;;5.20;99.90;;;;;;5360111;26;19935;-93
2024/04/17 01:08:08;;;;;;;;;;;6.40;99.90;;;;;;5389430;26;19953;-93
2024/04/17 01:10:34;;;;;;;;;;;5.40;99.90;;;;;;5360988;26;19929;-93
2024/04/17 01:13:00;;;;;;;;;;;5.60;99.90;;;;;;5388958;26;19938;-93
2024/04/17 01:15:25;;;;;;;;;;;5.40;99.90;;;;;;5360973;26;19940;-93
2024/04/17 01:17:51;;;;;;;;;;;5.20;99.90;;;;;;5421042;26;19952;-93
2024/04/17 01:20:17;;;;;;;;;;;5.20;99.90;;;;;;5360552;26;19937;-93
2024/04/17 01:22:43;;;;;;;;;;;5.10;99.90;;;;;;5389969;26;19929;-93
2024/04/17 01:25:08;;;;;;;;;;;4.90;99.90;;;;;;5360761;26;19958;-94
2024/04/17 01:27:34;;;;;;;;;;;4.90;99.90;;;;;;5360261;26;19933;-93
2024/04/17 01:29:59;;;;;;;;;;;4.80;99.90;;;;;;5360438;26;19950;-91
2024/04/17 01:32:25;;;;;;;;;;;4.70;99.90;;;;;;5359686;26;19961;-91
2024/04/17 01:34:51;;;;;;;;;;;4.50;99.90;;;;;;5359870;26;20280;-91
2024/04/17 01:37:17;;;;;;;;;;;4.70;99.90;;;;;;5359325;26;19933;-92
2024/04/17 01:39:42;;;;;;;;;;;4.60;99.90;;;;;;5359797;26;20004;-91
2024/04/17 01:42:08;;;;;;;;;;;4.60;99.90;;;;;;5359330;26;20374;-91
2024/04/17 01:44:34;;;;;;;;;;;5.00;99.90;;;;;;5360380;26;20363;-91
2024/04/17 01:46:59;;;;;;;;;;;4.80;99.90;;;;;;5389595;26;20379;-92
2024/04/17 01:49:25;;;;;;;;;;;4.80;99.90;;;;;;5360188;26;20351;-91
2024/04/17 01:51:51;;;;;;;;;;;5.10;99.90;;;;;;5359996;26;19955;-91
2024/04/17 01:54:16;;;;;;;;;;;5.20;99.90;;;;;;5390002;26;20002;-91
2024/04/17 01:56:42;;;;;;;;;;;5.40;99.90;;;;;;5359827;26;20008;-92
2024/04/17 01:59:07;;;;;;;;;;;5.00;99.90;;;;;;5359978;26;20360;-91
2024/04/17 02:01:34;;;;;;;;;;;4.90;99.90;;;;;;5360231;26;19998;-91
2024/04/17 02:04:00;;;;;;;;;;;4.70;99.90;;;;;;5388765;26;19936;-91
2024/04/17 02:06:25;;;;;;;;;;;4.50;99.90;;;;;;5359374;26;19929;-92
2024/04/17 02:08:51;;;;;;;;;;;4.50;99.90;;;;;;5358728;26;20328;-91
2024/04/17 02:11:17;;;;;;;;;;;4.70;99.90;;;;;;5358940;26;19929;-92
2024/04/17 02:13:42;;;;;;;;;;;4.50;99.90;;;;;;5360159;26;19929;-91
2024/04/17 02:16:08;;;;;;;;;;;4.30;99.90;;;;;;5359906;26;19948;-91
2024/04/17 02:18:33;;;;;;;;;;;4.20;99.90;;;;;;5359972;26;19929;-91
2024/04/17 02:21:01;;;;;;;;;;;4.30;99.90;;;;;;5388670;26;20000;-91
2024/04/17 02:23:28;;;;;;;;;;;4.30;99.90;;;;;;5360214;26;19940;-91
2024/04/17 02:25:57;;;;;;;;;;;4.30;99.90;;;;;;5359993;26;19929;-91
2024/04/17 02:28:22;;;;;;;;;;;4.50;99.90;;;;;;5389357;26;19929;-91
2024/04/17 02:30:48;;;;;;;;;;;4.40;99.90;;;;;;5359947;26;19936;-92
2024/04/17 02:33:14;;;;;;;;;;;4.40;99.90;;;;;;5388134;26;19928;-91
2024/04/17 02:35:40;;;;;;;;;;;4.30;99.90;;;;;;5387887;26;19936;-92
2024/04/17 02:38:05;;;;;;;;;;;4.40;99.90;;;;;;5358605;26;19936;-92
2024/04/17 02:40:31;;;;;;;;;;;4.50;99.90;;;;;;5358772;26;20272;-92
2024/04/17 02:42:57;;;;;;;;;;;4.60;99.90;;;;;;5359318;26;20254;-91
2024/04/17 02:45:22;;;;;;;;;;;4.80;99.90;;;;;;5359206;26;19929;-92
2024/04/17 02:47:48;;;;;;;;;;;4.80;99.90;;;;;;5359054;26;19945;-92
2024/04/17 02:50:13;;;;;;;;;;;4.80;99.90;;;;;;5389694;26;19929;-92
2024/04/17 02:52:39;;;;;;;;;;;4.70;99.90;;;;;;5359625;26;20367;-92
2024/04/17 02:55:05;;;;;;;;;;;4.60;99.90;;;;;;5359888;26;19933;-92
2024/04/17 02:57:30;;;;;;;;;;;4.80;99.90;;;;;;5359106;26;19929;-92
2024/04/17 02:59:56;;;;;;;;;;;4.90;99.90;;;;;;5359366;26;19929;-92
2024/04/17 03:02:21;;;;;;;;;;;5.00;99.90;;;;;;5358062;26;19940;-91
2024/04/17 03:04:49;;;;;;;;;;;4.90;99.90;;;;;;5387953;26;19933;-92
2024/04/17 03:07:15;;;;;;;;;;;4.90;99.90;;;;;;5359054;26;19933;-92
2024/04/17 03:09:41;;;;;;;;;;;5.00;99.90;;;;;;5358792;26;19933;-91
2024/04/17 03:12:06;;;;;;;;;;;5.20;99.90;;;;;;5359380;26;19940;-92
2024/04/17 03:14:32;;;;;;;;;;;5.50;99.90;;;;;;5359059;26;19936;-92
2024/04/17 03:16:58;;;;;;;;;;;5.40;99.90;;;;;;5359038;26;19961;-92
2024/04/17 03:19:23;;;;;;;;;;;6.30;99.90;;;;;;5359217;26;19928;-92
2024/04/17 03:21:49;;;;;;;;;;;5.60;99.90;;;;;;5359674;26;20425;-92
2024/04/17 03:24:14;;;;;;;;;;;5.30;99.90;;;;;;5358829;26;20287;-92
2024/04/17 03:26:40;;;;;;;;;;;5.90;99.90;;;;;;5359804;26;19929;-92
2024/04/17 03:29:05;;;;;;;;;;;6.60;99.90;;;;;;5358823;26;19929;-92
2024/04/17 03:31:31;;;;;;;;;;;5.60;99.90;;;;;;5357229;26;20347;-92
2024/04/17 03:33:56;;;;;;;;;;;5.70;99.90;;;;;;5358849;26;20365;-92
2024/04/17 03:36:22;;;;;;;;;;;5.70;99.90;;;;;;5358063;26;19941;-92
2024/04/17 03:38:47;;;;;;;;;;;6.40;99.90;;;;;;5358252;26;19936;-92
2024/04/17 03:41:13;;;;;;;;;;;5.30;99.90;;;;;;5358693;26;19936;-91
2024/04/17 03:43:39;;;;;;;;;;;5.50;99.90;;;;;;5358740;26;19994;-92
2024/04/17 03:46:04;;;;;;;;;;;4.90;99.90;;;;;;5358499;26;20256;-92
2024/04/17 03:48:31;;;;;;;;;;;6.50;99.90;;;;;;5358672;26;19929;-91
2024/04/17 03:50:56;;;;;;;;;;;6.30;99.90;;;;;;5358678;26;19965;-92
2024/04/17 03:53:22;;;;;;;;;;;5.30;99.90;;;;;;5358052;26;19998;-92
2024/04/17 03:55:47;;;;;;;;;;;5.40;99.90;;;;;;5387149;26;19929;-91
2024/04/17 03:58:13;;;;;;;;;;;5.40;99.90;;;;;;5387374;26;20260;-92
2024/04/17 04:00:39;;;;;;;;;;;6.00;99.90;;;;;;5385641;26;19929;-91
2024/04/17 04:03:04;;;;;;;;;;;6.70;99.90;;;;;;5358384;26;20027;-92
2024/04/17 04:05:30;;;;;;;;;;;6.00;99.90;;;;;;5357006;26;19929;-92
2024/04/17 04:07:55;;;;;;;;;;;6.10;99.90;;;;;;5387393;26;19998;-92
2024/04/17 04:10:21;;;;;;;;;;;6.40;99.90;;;;;;5357734;26;20352;-91
2024/04/17 04:12:47;;;;;;;;;;;6.00;99.90;;;;;;5358244;26;19929;-92
2024/04/17 04:15:12;;;;;;;;;;;7.20;99.90;;;;;;5358201;26;20443;-92
2024/04/17 04:17:38;;;;;;;;;;;5.80;99.90;;;;;;5357878;26;19973;-92
2024/04/17 04:20:03;;;;;;;;;;;6.00;99.90;;;;;;5358090;26;19928;-91
2024/04/17 04:22:31;;;;;;;;;;;5.60;99.90;;;;;;5387508;26;19929;-92
2024/04/17 04:24:57;;;;;;;;;;;6.10;99.90;;;;;;5387025;26;19929;-92
2024/04/17 04:27:23;;;;;;;;;;;5.90;99.90;;;;;;5357944;26;19929;-92
2024/04/17 04:29:48;;;;;;;;;;;5.90;99.90;;;;;;5356230;26;19929;-92
2024/04/17 04:32:14;;;;;;;;;;;5.80;99.90;;;;;;5387059;26;19936;-92
2024/04/17 04:34:39;;;;;;;;;;;6.20;99.90;;;;;;5356188;26;19936;-92
2024/04/17 04:37:05;;;;;;;;;;;6.20;99.90;;;;;;5357268;26;19941;-91
2024/04/17 04:39:30;;;;;;;;;;;5.50;99.90;;;;;;5357887;26;19933;-92
2024/04/17 04:41:56;;;;;;;;;;;5.90;99.90;;;;;;5386612;26;19939;-92
2024/04/17 04:44:21;;;;;;;;;;;5.40;99.90;;;;;;5357827;26;19933;-92
2024/04/17 04:46:47;;;;;;;;;;;5.20;99.90;;;;;;5357023;26;19965;-92
2024/04/17 04:49:13;;;;;;;;;;;6.80;99.90;;;;;;5357609;26;20359;-91
2024/04/17 04:51:38;;;;;;;;;;;6.70;99.90;;;;;;5357315;26;19929;-92
2024/04/17 04:54:04;;;;;;;;;;;5.50;99.90;;;;;;5386512;26;19929;-92
2024/04/17 04:56:29;;;;;;;;;;;5.60;99.90;;;;;;5356708;26;20371;-92
2024/04/17 04:58:55;;;;;;;;;;;5.70;99.90;;;;;;5355713;26;20364;-92
2024/04/17 05:01:20;;;;;;;;;;;6.60;99.90;;;;;;5386423;26;19997;-92
2024/04/17 05:03:46;;;;;;;;;;;6.90;99.90;;;;;;5355859;26;20263;-92
2024/04/17 05:06:11;;;;;;;;;;;5.60;99.90;;;;;;5385905;26;19938;-91
2024/04/17 05:08:37;;;;;;;;;;;6.10;99.90;;;;;;5389045;26;19933;-92
2024/04/17 05:11:03;;;;;;;;;;;6.60;99.90;;;;;;5360600;26;19935;-92
2024/04/17 05:13:28;;;;;;;;;;;5.50;99.90;;;;;;5360759;26;19929;-92
2024/04/17 05:15:54;;;;;;;;;;;5.50;99.90;;;;;;5360674;26;20001;-93
2024/04/17 05:18:19;;;;;;;;;;;5.50;99.90;;;;;;5360324;26;19929;-92
2024/04/17 05:20:45;;;;;;;;;;;5.70;99.90;;;;;;5360653;26;20371;-92
2024/04/17 05:23:11;;;;;;;;;;;5.50;99.90;;;;;;5360949;26;19929;-92
2024/04/17 05:25:37;;;;;;;;;;;5.80;99.90;;;;;;5360095;26;19936;-92
2024/04/17 05:28:02;;;;;;;;;;;6.60;99.90;;;;;;5389247;26;20363;-92
2024/04/17 05:30:28;;;;;;;;;;;6.10;99.90;;;;;;5389918;26;19951;-92
2024/04/17 05:32:54;;;;;;;;;;;6.70;99.90;;;;;;5359165;26;20284;-92
2024/04/17 05:35:19;;;;;;;;;;;7.40;99.90;;;;;;5389520;26;19937;-92
2024/04/17 05:37:45;;;;;;;;;;;5.90;99.90;;;;;;5389864;26;19929;-92
2024/04/17 05:40:10;;;;;;;;;;;6.10;99.90;;;;;;5360243;26;20357;-92
2024/04/17 05:42:36;;;;;;;;;;;6.10;99.90;;;;;;5360529;26;19936;-93
2024/04/17 05:45:04;;;;;;;;;;;6.00;99.90;;;;;;5360335;26;19936;-92
2024/04/17 05:47:30;;;;;;;;;;;5.60;99.90;;;;;;5360704;26;19929;-92
2024/04/17 05:49:55;;;;;;;;;;;7.60;99.90;;;;;;5360357;26;19929;-92
2024/04/17 05:52:21;;;;;;;;;;;7.10;99.90;;;;;;5360273;26;20383;-92
2024/04/17 05:54:47;;;;;;;;;;;6.20;99.90;;;;;;5360365;26;19929;-92
2024/04/17 05:57:12;;;;;;;;;;;7.40;99.90;;;;;;5360254;26;19929;-92
2024/04/17 05:59:38;;;;;;;;;;;6.70;99.90;;;;;;5360173;26;20321;-92
2024/04/17 06:02:03;;;;;;;;;;;5.70;99.90;;;;;;5358560;26;19936;-92
2024/04/17 06:04:29;;;;;;;;;;;5.60;99.90;;;;;;5359754;26;19957;-93
2024/04/17 06:06:55;;;;;;;;;;;6.70;99.90;;;;;;5360312;26;19929;-93
2024/04/17 06:09:21;;;;;;;;;;;5.60;99.90;;;;;;5359432;26;20003;-92
2024/04/17 06:11:46;;;;;;;;;;;5.70;99.90;;;;;;5361055;26;19929;-92
2024/04/17 06:14:12;;;;;;;;;;;5.70;99.90;;;;;;5361764;26;19975;-93
2024/04/17 06:16:37;;;;;;;;;;;5.80;99.90;;;;;;5360385;26;19971;-92
2024/04/17 06:19:03;;;;;;;;;;;5.90;99.90;;;;;;5361095;26;20352;-92
2024/04/17 06:21:31;;;;;;;;;;;5.80;99.90;;;;;;5358208;26;20356;-92
2024/04/17 06:23:57;;;;;;;;;;;5.60;99.90;;;;;;5360490;26;19936;-92
2024/04/17 06:26:23;;;;;;;;;;;5.60;99.90;;;;;;5356178;26;19953;-92
2024/04/17 06:28:48;;;;;;;;;;;5.50;99.90;;;;;;5350910;26;20358;-92
2024/04/17 06:31:16;;;;;;;;;;;5.70;99.90;;;;;;5351962;26;19929;-92
2024/04/17 06:33:42;;;;;;;;;;;5.60;99.90;;;;;;5356882;26;20255;-93
2024/04/17 06:36:07;;;;;;;;;;;5.60;99.90;;;;;;5356309;26;19929;-93
2024/04/17 06:38:37;;;;;;;;;;;5.60;99.90;;;;;;5357572;26;19929;-93
2024/04/17 06:41:03;;;;;;;;;;;5.80;99.90;;;;;;5361363;26;19933;-93
2024/04/17 06:43:29;;;;;;;;;;;6.00;99.90;;;;;;5361131;26;19940;-93
2024/04/17 06:45:55;;;;;;;;;;;6.20;99.90;;;;;;5354279;26;19933;-93
2024/04/17 06:48:21;;;;;;;;;;;6.40;99.90;;;;;;5363014;26;20332;-93
2024/04/17 06:50:46;;;;;;;;;;;6.50;99.90;;;;;;5358093;26;20363;-93
2024/04/17 06:53:12;;;;;;;;;;;6.30;99.90;;;;;;5360641;26;19928;-93
2024/04/17 06:55:38;;;;;;;;;;;6.40;99.90;;;;;;5386151;26;19936;-92
2024/04/17 06:58:03;;;;;;;;;;;6.30;99.90;;;;;;5358746;26;19957;-93
2024/04/17 07:00:33;;;;;;;;;;;6.10;99.90;;;;;;5358841;26;19948;-93
2024/04/17 07:02:59;;;;;;;;;;;6.40;99.90;;;;;;5361023;26;19936;-93
2024/04/17 07:05:25;;;;;;;;;;;6.60;99.90;;;;;;5364439;26;19929;-93
2024/04/17 07:07:51;;;;;;;;;;;7.70;99.90;;;;;;5363253;26;20008;-92
2024/04/17 07:10:16;;;;;;;;;;;6.70;99.90;;;;;;5359047;26;19933;-92
2024/04/17 07:12:42;;;;;;;;;;;6.70;99.90;;;;;;5356607;26;19940;-92
2024/04/17 07:15:09;;;;;;;;;;;6.70;99.90;;;;;;5357668;26;19979;-93
2024/04/17 07:17:34;;;;;;;;;;;6.80;99.90;;;;;;5355889;26;19936;-92
2024/04/17 07:20:00;;;;;;;;;;;5.90;99.90;;;;;;5353765;26;19929;-92
2024/04/17 07:22:26;;;;;;;;;;;6.80;99.90;;;;;;5357052;26;19936;-93
2024/04/17 07:24:51;;;;;;;;;;;6.90;99.90;;;;;;5354828;26;19933;-93
2024/04/17 07:27:17;;;;;;;;;;;6.80;99.90;;;;;;5358090;26;19945;-93
2024/04/17 07:29:42;;;;;;;;;;;6.80;99.90;;;;;;5384142;26;19935;-93
2024/04/17 07:32:08;;;;;;;;;;;6.60;99.90;;;;;;5360841;26;19937;-93
2024/04/17 07:34:34;;;;;;;;;;;6.70;99.90;;;;;;5361307;26;20355;-93
2024/04/17 07:36:59;;;;;;;;;;;7.00;99.90;;;;;;5361284;26;19936;-93
2024/04/17 07:39:25;;;;;;;;;;;6.70;99.90;;;;;;5360624;26;19929;-93
2024/04/17 07:41:50;;;;;;;;;;;6.00;99.90;;;;;;5357924;26;20383;-93
2024/04/17 07:44:16;;;;;;;;;;;8.20;99.90;;;;;;5359162;26;20413;-94
2024/04/17 07:46:42;;;;;;;;;;;6.90;99.90;;;;;;5358617;26;20252;-93
2024/04/17 07:49:07;;;;;;;;;;;6.40;99.90;;;;;;5358378;26;19956;-93
2024/04/17 07:51:33;;;;;;;;;;;7.30;99.90;;;;;;5357345;26;19947;-93
2024/04/17 07:53:59;;;;;;;;;;;7.60;99.90;;;;;;5356009;26;19937;-93
2024/04/17 07:56:25;;;;;;;;;;;7.80;99.90;;;;;;5355694;26;20352;-93
2024/04/17 07:58:50;;;;;;;;;;;7.70;99.90;;;;;;5356824;26;19940;-93
2024/04/17 08:01:16;;;;;;;;;;;7.50;99.90;;;;;;5356355;26;19936;-92
2024/04/17 08:03:43;;;;;;;;;;;7.90;99.90;;;;;;5386852;26;19930;-92
2024/04/17 08:06:09;;;;;;;;;;;8.40;99.90;;;;;;5353484;26;20019;-93
2024/04/17 08:08:35;;;;;;;;;;;8.70;99.90;;;;;;5353844;26;19982;-94
2024/04/17 08:11:01;;;;;;;;;;;7.90;99.90;;;;;;5355063;26;19929;-93
2024/04/17 08:13:27;;;;;;;;;;;8.00;99.90;;;;;;5363595;26;20066;-94
2024/04/17 08:15:53;;;;;;;;;;;8.30;99.90;;;;;;5402962;21;19929;-93
2024/04/17 08:18:19;;;;;;;;;;;8.30;99.90;;;;;;5390270;26;20223;-93
2024/04/17 08:20:44;;;;;;;;;;;8.60;99.90;;;;;;5389574;26;19928;-92
2024/04/17 08:23:10;;;;;;;;;;;9.20;99.90;;;;;;5386651;26;20324;-91
2024/04/17 08:25:36;;;;;;;;;;;9.60;99.90;;;;;;5388292;26;20419;-92
2024/04/17 08:28:01;;;;;;;;;;;9.60;99.90;;;;;;5386404;26;19956;-91
2024/04/17 08:30:27;;;;;;;;;;;9.80;99.90;;;;;;5386274;26;19928;-92
2024/04/17 08:32:53;;;;;;;;;;;9.70;99.90;;;;;;5418692;26;19982;-91
2024/04/17 08:35:18;;;;;;;;;;;9.60;99.90;;;;;;5389429;26;19936;-94
2024/04/17 08:37:45;;;;;;;;;;;9.70;99.90;;;;;;5389324;26;20441;-92
2024/04/17 08:40:12;;;;;;;;;;;10.10;99.90;;;;;;5390717;26;19957;-92
2024/04/17 08:42:40;;;;;;;;;;;10.50;99.90;;;;;;5392815;26;19940;-92
2024/04/17 08:45:11;;;;;;;;;;;10.40;99.90;;;;;;5424419;26;19928;-93
2024/04/17 08:47:38;;;;;;;;;;;10.30;99.90;;;;;;5457713;26;19928;-92
2024/04/17 08:50:04;;;;;;;;;;;9.80;99.90;;;;;;5397638;26;20352;-93
2024/04/17 08:52:30;;;;;;;;;;;9.80;99.90;;;;;;5398082;26;20009;-93
2024/04/17 08:54:57;;;;;;;;;;;9.30;99.90;;;;;;5395938;26;19963;-93
2024/04/17 08:57:23;;;;;;;;;;;9.20;99.90;;;;;;5397582;26;19929;-93
2024/04/17 08:59:49;;;;;;;;;;;9.20;99.90;;;;;;5398315;26;19945;-93
2024/04/17 09:02:15;;;;;;;;;;;9.30;99.90;;;;;;5412206;21;20367;-92
2024/04/17 09:04:44;;;;;;;;;;;9.40;99.90;;;;;;5386454;26;20656;-92
2024/04/17 09:07:11;;;;;;;;;;;9.70;99.90;;;;;;5362189;26;19941;-93
2024/04/17 09:09:40;;;;;;;;;;;10.30;99.90;;;;;;5356433;26;19957;-92
2024/04/17 09:12:06;;;;;;;;;;;10.50;99.90;;;;;;5383099;26;19979;-94
2024/04/17 09:14:32;;;;;;;;;;;10.80;99.90;;;;;;5356267;26;19937;-93
2024/04/17 09:16:57;;;;;;;;;;;11.00;99.90;;;;;;5354820;26;20059;-93
2024/04/17 09:19:23;;;;;;;;;;;9.80;99.90;;;;;;5352705;26;19930;-92
2024/04/17 09:21:50;;;;;;;;;;;8.80;99.90;;;;;;5382272;26;19959;-92
2024/04/17 09:24:16;;;;;;;;;;;8.40;99.90;;;;;;5352388;26;19941;-92
2024/04/17 09:26:41;;;;;;;;;;;7.70;99.90;;;;;;5353171;26;19999;-92
2024/04/17 09:29:07;;;;;;;;;;;7.20;99.90;;;;;;5351953;26;20260;-92
2024/04/17 09:31:32;;;;;;;;;;;7.30;99.90;;;;;;5351807;26;19975;-92
2024/04/17 09:34:00;;;;;;;;;;;6.70;99.90;;;;;;5352505;26;20376;-91
2024/04/17 09:36:25;;;;;;;;;;;6.20;99.90;;;;;;5353503;26;20375;-92
2024/04/17 09:38:51;;;;;;;;;;;6.20;99.90;;;;;;5352067;26;19929;-92
2024/04/17 09:41:16;;;;;;;;;;;6.10;99.90;;;;;;5353113;26;19965;-92
2024/04/17 09:43:42;;;;;;;;;;;6.20;99.90;;;;;;5352661;26;19975;-92
2024/04/17 09:46:08;;;;;;;;;;;6.10;99.90;;;;;;5353547;26;19937;-92
2024/04/17 09:48:37;;;;;;;;;;;6.00;99.90;;;;;;5352135;26;19929;-92
2024/04/17 09:51:07;;;;;;;;;;;6.70;99.90;;;;;;5352166;26;19934;-92
2024/04/17 09:53:33;;;;;;;;;;;6.00;99.90;;;;;;5351775;26;19936;-92
2024/04/17 09:55:59;;;;;;;;;;;6.10;99.90;;;;;;5353605;26;19937;-92
2024/04/17 09:58:34;;;;;;;;;;;6.20;99.90;;;;;;5353438;26;19929;-92
2024/04/17 10:01:04;;;;;;;;;;;5.80;99.90;;;;;;5356844;26;19932;-92
2024/04/17 10:03:30;;;;;;;;;;;6.40;99.90;;;;;;5381446;26;20408;-93
2024/04/17 10:05:57;;;;;;;;;;;6.50;99.90;;;;;;5350070;26;19936;-93
2024/04/17 10:08:23;;;;;;;;;;;6.80;99.90;;;;;;5350581;26;19957;-93
2024/04/17 10:10:49;;;;;;;;;;;7.00;99.90;;;;;;5352362;26;20398;-93
2024/04/17 10:13:15;;;;;;;;;;;7.60;99.90;;;;;;5352595;26;19935;-92
2024/04/17 10:15:43;;;;;;;;;;;7.70;99.90;;;;;;5351122;26;19934;-92
2024/04/17 10:18:09;;;;;;;;;;;7.80;99.90;;;;;;5381643;26;19937;-92
2024/04/17 10:20:34;;;;;;;;;;;8.30;99.90;;;;;;5351780;26;20355;-92
2024/04/17 10:23:05;;;;;;;;;;;8.90;99.90;;;;;;5352614;26;19929;-92
2024/04/17 10:25:31;;;;;;;;;;;8.90;99.90;;;;;;5353247;26;20017;-93
2024/04/17 10:28:11;;;;;;;;;;;9.50;99.90;;;;;;5353737;26;20364;-92
2024/04/17 10:30:37;;;;;;;;;;;9.80;99.90;;;;;;5354490;26;19998;-92
2024/04/17 10:33:04;;;;;;;;;;;9.80;99.90;;;;;;5353693;26;19941;-93
2024/04/17 10:35:32;;;;;;;;;;;10.00;99.90;;;;;;5353619;26;19955;-92
2024/04/17 10:38:04;;;;;;;;;;;10.20;99.90;;;;;;5353038;26;19949;-93
2024/04/17 10:40:30;;;;;;;;;;;10.70;99.90;;;;;;5352916;26;19929;-92
2024/04/17 10:42:55;;;;;;;;;;;10.80;99.90;;;;;;5352237;26;20002;-92
2024/04/17 10:45:22;;;;;;;;;;;11.40;99.30;;;;;;5352400;26;20334;-92
2024/04/17 10:47:51;;;;;;;;;;;12.00;99.90;;;;;;5376365;21;20290;-92
2024/04/17 10:50:17;;;;;;;;;;;12.20;98.50;;;;;;5358853;26;19929;-93
2024/04/17 10:52:43;;;;;;;;;;;12.10;97.80;;;;;;5388038;26;19935;-92
2024/04/17 10:55:10;;;;;;;;;;;12.20;96.50;;;;;;5388512;26;19929;-93
2024/04/17 10:57:35;;;;;;;;;;;12.50;90.20;;;;;;5358490;26;19936;-93
2024/04/17 11:00:01;;;;;;;;;;;12.50;90.90;;;;;;5360154;26;19946;-92
2024/04/17 11:02:29;;;;;;;;;;;12.80;89.70;;;;;;5359652;26;21478;-93
2024/04/17 11:04:54;;;;;;;;;;;13.00;85.50;;;;;;5357735;26;19936;-93
2024/04/17 11:07:20;;;;;;;;;;;13.80;77.10;;;;;;5358849;26;19928;-93
2024/04/17 11:09:46;;;;;;;;;;;14.60;70.50;;;;;;5360592;26;19929;-93
2024/04/17 11:12:16;;;;;;;;;;;14.80;66.60;;;;;;5363573;26;19929;-93
2024/04/17 11:14:41;;;;;;;;;;;14.80;68.40;;;;;;5363737;26;19941;-93
2024/04/17 11:17:10;;;;;;;;;;;15.40;62.00;;;;;;5362439;26;19975;-93
2024/04/17 11:19:37;;;;;;;;;;;15.60;59.10;;;;;;5361531;26;19929;-92
2024/04/17 11:22:23;;;;;;;;;;;15.70;58.80;;;;;;5364494;26;19936;-93
2024/04/17 11:24:49;;;;;;;;;;;16.70;56.60;;;;;;5371147;26;19929;-94
2024/04/17 11:27:18;;;;;;;;;;;16.50;55.00;;;;;;5372842;26;20347;-94
2024/04/17 11:29:47;;;;;;;;;;;16.10;54.90;;;;;;5373661;26;19937;-94
2024/04/17 11:32:13;;;;;;;;;;;15.40;58.80;;;;;;5366999;26;19935;-94
2024/04/17 11:34:39;;;;;;;;;;;15.30;59.30;;;;;;5368671;26;19937;-94
2024/04/17 11:37:05;;;;;;;;;;;15.40;58.80;;;;;;5363719;26;19997;-94
2024/04/17 11:39:31;;;;;;;;;;;13.70;61.70;;;;;;5360399;26;19935;-94
2024/04/17 11:41:58;;;;;;;;;;;10.90;88.80;;;;;;5357663;26;19936;-93
2024/04/17 11:44:24;;;;;;;;;;;9.00;99.90;;;;;;5359655;26;19941;-93
2024/04/17 11:46:50;;;;;;;;;;;7.70;99.90;;;;;;5358731;26;19929;-93
2024/04/17 11:49:16;;;;;;;;;;;7.40;99.90;;;;;;5357227;26;19938;-94
2024/04/17 11:51:41;;;;;;;;;;;7.70;99.90;;;;;;5358511;26;20382;-93
2024/04/17 11:54:07;;;;;;;;;;;8.30;99.90;;;;;;5359102;26;19939;-93
2024/04/17 11:56:32;;;;;;;;;;;8.20;99.90;;;;;;5388189;26;19998;-93
2024/04/17 11:58:58;;;;;;;;;;;8.10;99.90;;;;;;5360069;26;19936;-93
2024/04/17 12:01:23;;;;;;;;;;;8.20;99.90;;;;;;5387431;26;19929;-94
2024/04/17 12:03:49;;;;;;;;;;;7.70;99.90;;;;;;5358371;26;19931;-93
2024/04/17 12:06:15;;;;;;;;;;;7.50;99.90;;;;;;5357674;26;19936;-93
2024/04/17 12:08:40;;;;;;;;;;;7.50;99.90;;;;;;5358677;26;19945;-94
2024/04/17 12:11:06;;;;;;;;;;;7.70;99.90;;;;;;5358281;26;20011;-93
2024/04/17 12:13:32;;;;;;;;;;;7.30;99.90;;;;;;5359089;26;19929;-93
2024/04/17 12:15:57;;;;;;;;;;;7.60;99.90;;;;;;5358427;26;20379;-93
2024/04/17 12:18:23;;;;;;;;;;;7.40;99.90;;;;;;5362051;26;19997;-93
2024/04/17 12:20:48;;;;;;;;;;;7.50;99.90;;;;;;5362022;26;19929;-93
2024/04/17 12:23:18;;;;;;;;;;;8.00;99.90;;;;;;5362056;26;19929;-94
2024/04/17 12:28:29;;;;;;;;;;;7.00;99.90;;;;;;5396705;26;19936;-93
2024/04/17 12:30:55;;;;;;;;;;;6.50;99.90;;;;;;5363106;26;19929;-93
2024/04/17 12:33:21;;;;;;;;;;;7.20;99.90;;;;;;5360919;26;20314;-93
2024/04/17 12:35:46;;;;;;;;;;;6.40;99.90;;;;;;5361537;26;19965;-93
2024/04/17 12:38:12;;;;;;;;;;;6.30;99.90;;;;;;5361641;26;19975;-94
2024/04/17 12:40:37;;;;;;;;;;;6.70;99.90;;;;;;5391469;26;19929;-93
2024/04/17 12:43:04;;;;;;;;;;;6.60;99.90;;;;;;5362414;26;19936;-93
2024/04/17 12:45:29;;;;;;;;;;;6.90;99.90;;;;;;5362095;26;19983;-93
2024/04/17 12:47:55;;;;;;;;;;;6.90;99.90;;;;;;5362984;26;20356;-93
2024/04/17 12:50:21;;;;;;;;;;;6.60;99.90;;;;;;5363258;26;20359;-94
2024/04/17 12:52:47;;;;;;;;;;;6.80;99.90;;;;;;5362290;26;19998;-94
2024/04/17 12:55:12;;;;;;;;;;;7.20;99.90;;;;;;5363559;26;19937;-93
2024/04/17 12:57:40;;;;;;;;;;;7.20;99.90;;;;;;5363260;26;19997;-94
2024/04/17 13:00:05;;;;;;;;;;;7.00;99.90;;;;;;5364375;26;19929;-93
2024/04/17 13:02:31;;;;;;;;;;;7.30;99.90;;;;;;5363928;26;19929;-93
2024/04/17 13:04:56;;;;;;;;;;;7.40;99.90;;;;;;5363197;26;19940;-94
2024/04/17 13:07:22;;;;;;;;;;;7.10;99.90;;;;;;5361142;26;19941;-94
2024/04/17 13:09:47;;;;;;;;;;;7.20;99.90;;;;;;5361266;26;20370;-93
2024/04/17 13:12:13;;;;;;;;;;;7.70;99.90;;;;;;5390186;26;19936;-93
2024/04/17 13:14:39;;;;;;;;;;;7.50;99.90;;;;;;5397310;26;19975;-93
2024/04/17 13:17:05;;;;;;;;;;;7.40;99.90;;;;;;5360579;26;20433;-93
2024/04/17 13:19:30;;;;;;;;;;;7.60;99.90;;;;;;5360560;26;19935;-93
2024/04/17 13:21:56;;;;;;;;;;;8.00;99.90;;;;;;5360979;26;19929;-93
2024/04/17 13:24:21;;;;;;;;;;;8.30;99.90;;;;;;5360736;26;20265;-93
2024/04/17 13:26:47;;;;;;;;;;;8.30;99.90;;;;;;5390161;26;20248;-94
2024/04/17 13:29:13;;;;;;;;;;;8.20;99.90;;;;;;5388846;26;20374;-93
2024/04/17 13:31:38;;;;;;;;;;;8.90;99.90;;;;;;5360682;26;20330;-93
2024/04/17 13:34:04;;;;;;;;;;;9.50;99.90;;;;;;5360668;26;19983;-93
2024/04/17 13:36:30;;;;;;;;;;;9.80;99.90;;;;;;5359855;26;19937;-93
2024/04/17 13:38:55;;;;;;;;;;;9.60;99.90;;;;;;5361987;26;19929;-93
2024/04/17 13:41:21;;;;;;;;;;;9.80;99.90;;;;;;5361073;26;19961;-93
2024/04/17 13:43:49;;;;;;;;;;;9.40;99.90;;;;;;5361159;26;19979;-93
2024/04/17 13:46:16;;;;;;;;;;;9.70;99.90;;;;;;5362420;26;19948;-93
2024/04/17 13:48:42;;;;;;;;;;;9.60;99.90;;;;;;5362598;26;19937;-93
2024/04/17 13:51:10;;;;;;;;;;;9.60;99.90;;;;;;5362163;26;20339;-92
2024/04/17 13:53:36;;;;;;;;;;;10.10;99.90;;;;;;5361752;26;20458;-94
2024/04/17 13:56:02;;;;;;;;;;;10.30;99.90;;;;;;5390621;26;19929;-93
2024/04/17 13:58:28;;;;;;;;;;;9.60;99.90;;;;;;5389963;26;20298;-93
2024/04/17 14:00:54;;;;;;;;;;;8.50;99.90;;;;;;5357928;26;19935;-93
2024/04/17 14:03:27;;;;;;;;;;;7.70;99.90;;;;;;5389691;26;19929;-93
2024/04/17 14:05:53;;;;;;;;;;;6.50;99.90;;;;;;5362067;26;19936;-93
2024/04/17 14:08:18;;;;;;;;;;;6.50;99.90;;;;;;5360125;26;19929;-92
2024/04/17 14:10:44;;;;;;;;;;;6.20;99.90;;;;;;5363146;26;19956;-93
2024/04/17 14:13:10;;;;;;;;;;;6.10;99.90;;;;;;5362379;26;19929;-93
2024/04/17 14:15:39;;;;;;;;;;;6.10;99.90;;;;;;5363437;26;19937;-93
2024/04/17 14:18:04;;;;;;;;;;;6.30;99.90;;;;;;5361838;26;19928;-93
2024/04/17 14:20:37;;;;;;;;;;;5.90;99.90;;;;;;5362988;26;19936;-93
2024/04/17 14:23:02;;;;;;;;;;;6.10;99.90;;;;;;5390027;26;19929;-93